createdAt,value
2019-02-06T00:10:16.796Z,1.88
2019-02-06T00:12:49.315Z,1.70
2019-02-06T00:18:35.012Z,1.67
2019-02-06T00:32:44.385Z,1.44
2019-02-06T00:35:34.956Z,1.38
2019-02-06T00:43:55.457Z,1.32
2019-02-06T00:46:46.027Z,1.32
2019-02-06T00:49:36.614Z,1.26
2019-02-06T00:52:27.519Z,1.19
2019-02-06T00:55:24.708Z,1.22
2019-02-06T01:03:24.056Z,1.27
2019-02-06T01:06:14.697Z,1.21
2019-02-06T01:09:18.228Z,0.87
2019-02-06T01:23:30.450Z,1.27
2019-02-06T01:26:03.216Z,1.26
2019-02-06T01:34:20.736Z,1.31
2019-02-06T01:37:11.309Z,1.32
2019-02-06T01:40:02.311Z,1.38
2019-02-06T01:43:15.046Z,1.41
2019-02-06T01:51:14.751Z,1.40
2019-02-06T01:53:57.672Z,1.38
2019-02-06T01:56:59.907Z,1.32
2019-02-06T01:59:42.246Z,1.31
2019-02-06T02:02:20.338Z,1.33
2019-02-06T02:05:30.007Z,1.30
2019-02-06T02:11:03.072Z,1.40
2019-02-06T02:13:53.781Z,1.49
2019-02-06T02:19:30.819Z,1.18
2019-02-06T02:22:21.415Z,1.25
2019-02-06T02:25:15.423Z,1.09
2019-02-06T02:27:47.018Z,1.01
2019-02-06T02:33:22.891Z,1.11
2019-02-06T02:38:57.009Z,1.12
2019-02-06T02:44:51.219Z,1.13
2019-02-06T02:48:01.785Z,0.99
2019-02-06T02:58:42.984Z,0.70
2019-02-06T03:15:16.261Z,0.34
2019-02-06T03:23:17.600Z,0.36
2019-02-06T03:25:59.862Z,0.30
2019-02-06T03:28:50.481Z,0.30
2019-02-06T03:34:36.427Z,0.31
2019-02-06T03:37:10.082Z,0.19
2019-02-06T03:40:00.689Z,0.17
2019-02-06T03:42:51.311Z,0.09
2019-02-06T03:45:35.775Z,0.10
2019-02-06T03:48:38.474Z,0.12
2019-02-06T03:51:12.249Z,0.04
2019-02-06T03:54:02.851Z,0.04
2019-02-06T03:56:53.453Z,-0.05
2019-02-06T03:59:44.099Z,-0.05
2019-02-06T04:16:58.376Z,-0.33
2019-02-06T04:19:48.987Z,-0.39
2019-02-06T04:25:43.526Z,-0.59
2019-02-06T04:28:53.235Z,-0.67
2019-02-06T04:31:35.712Z,-0.81
2019-02-06T04:34:28.393Z,-0.87
2019-02-06T04:37:31.265Z,-0.90
2019-02-06T04:45:39.482Z,-0.57
2019-02-06T04:48:32.131Z,-0.65
2019-02-06T04:54:17.652Z,-0.54
2019-02-06T04:56:48.901Z,-0.43
2019-02-06T04:59:39.230Z,-0.42
2019-02-06T05:02:11.823Z,-0.26
2019-02-06T05:08:03.536Z,-0.43
2019-02-06T05:11:04.278Z,-0.47
2019-02-06T05:13:36.860Z,-0.40
2019-02-06T05:16:46.544Z,-0.43
2019-02-06T05:19:18.599Z,-0.35
2019-02-06T05:22:09.175Z,-0.35
2019-02-06T05:25:37.839Z,-0.36
2019-02-06T05:28:18.220Z,-0.25
2019-02-06T05:30:59.469Z,-0.29
2019-02-06T05:33:42.661Z,-0.20
2019-02-06T05:36:52.354Z,-0.25
2019-02-06T05:42:27.807Z,-0.20
2019-02-06T05:45:18.393Z,-0.12
2019-02-06T05:50:33.420Z,-0.07
2019-02-06T05:53:23.999Z,-0.15
2019-02-06T05:56:14.575Z,-0.13
2019-02-06T06:02:13.510Z,-0.26
2019-02-06T06:08:11.636Z,-0.09
2019-02-06T06:11:02.332Z,-0.15
2019-02-06T06:13:35.343Z,-0.19
2019-02-06T06:16:25.937Z,-0.10
2019-02-06T06:19:16.527Z,-0.16
2019-02-06T06:22:26.197Z,-0.11
2019-02-06T06:25:17.278Z,-0.11
2019-02-06T06:27:50.144Z,0.01
2019-02-06T06:33:25.909Z,-0.01
2019-02-06T06:41:53.744Z,-0.02
2019-02-06T06:50:17.830Z,-0.03
2019-02-06T06:53:08.416Z,-0.08
2019-02-06T07:01:27.027Z,0.01
2019-02-06T07:09:45.170Z,0.22
2019-02-06T07:12:16.394Z,0.22
2019-02-06T07:15:18.886Z,0.23
2019-02-06T07:18:03.310Z,0.25
2019-02-06T07:26:04.258Z,0.17
2019-02-06T07:28:54.866Z,0.17
2019-02-06T07:35:27.313Z,0.16
2019-02-06T07:38:24.426Z,0.23
2019-02-06T07:41:00.820Z,0.22
2019-02-06T07:43:51.418Z,0.09
2019-02-06T07:49:44.314Z,0.21
2019-02-06T07:52:54.373Z,0.27
2019-02-06T07:55:45.025Z,0.34
2019-02-06T08:01:31.553Z,0.55
2019-02-06T08:04:03.493Z,0.65
2019-02-06T08:06:54.094Z,0.72
2019-02-06T08:09:44.718Z,0.89
2019-02-06T08:13:25.138Z,0.90
2019-02-06T08:15:58.337Z,0.92
2019-02-06T08:18:29.542Z,0.97
2019-02-06T08:21:20.219Z,1.02
2019-02-06T08:24:10.821Z,1.10
2019-02-06T08:26:54.001Z,1.18
2019-02-06T08:29:33.076Z,1.33
2019-02-06T08:32:23.656Z,1.03
2019-02-06T08:35:16.491Z,0.97
2019-02-06T08:37:49.519Z,1.07
2019-02-06T08:43:44.501Z,1.41
2019-02-06T08:46:35.130Z,1.29
2019-02-06T08:52:09.574Z,1.49
2019-02-06T08:57:46.646Z,1.75
2019-02-06T09:01:08.614Z,1.71
2019-02-06T09:03:52.666Z,1.77
2019-02-06T09:06:23.913Z,2.03
2019-02-06T09:12:14.167Z,2.09
2019-02-06T09:18:30.918Z,2.20
2019-02-06T09:21:02.804Z,1.92
2019-02-06T09:23:39.977Z,1.87
2019-02-06T09:31:48.563Z,2.21
2019-02-06T09:34:31.397Z,2.25
2019-02-06T09:37:22.021Z,2.22
2019-02-06T09:40:24.334Z,2.17
2019-02-06T09:42:55.918Z,2.21
2019-02-06T09:48:29.868Z,2.07
2019-02-06T09:54:05.836Z,2.35
2019-02-06T09:56:59.045Z,2.28
2019-02-06T09:59:49.693Z,2.35
2019-02-06T10:02:59.837Z,2.37
2019-02-06T10:05:52.173Z,2.52
2019-02-06T10:08:42.775Z,2.25
2019-02-06T10:11:33.379Z,2.48
2019-02-06T10:17:25.006Z,2.41
2019-02-06T10:20:17.463Z,2.49
2019-02-06T10:26:14.654Z,2.55
2019-02-06T10:32:11.010Z,2.80
2019-02-06T10:35:01.621Z,2.67
2019-02-06T10:40:48.044Z,2.65
2019-02-06T10:43:38.708Z,2.96
2019-02-06T10:46:29.450Z,2.72
2019-02-06T10:55:16.425Z,3.16
2019-02-06T10:58:19.656Z,2.85
2019-02-06T11:01:11.491Z,3.69
2019-02-06T11:04:02.149Z,3.61
2019-02-06T11:09:46.775Z,3.41
2019-02-06T11:15:22.692Z,3.24
2019-02-06T11:21:01.695Z,3.14
2019-02-06T11:23:52.320Z,3.60
2019-02-06T11:26:43.053Z,3.82
2019-02-06T11:32:18.392Z,4.08
2019-02-06T11:35:17.388Z,3.69
2019-02-06T11:37:50.357Z,4.08
2019-02-06T11:41:02.613Z,4.26
2019-02-06T11:43:55.558Z,4.22
2019-02-06T11:52:38.952Z,4.18
2019-02-06T11:58:33.628Z,4.32
2019-02-06T12:09:39.595Z,4.62
2019-02-06T12:15:33.635Z,4.57
2019-02-06T12:18:24.330Z,4.02
2019-02-06T12:20:55.686Z,4.05
2019-02-06T12:23:56.592Z,4.24
2019-02-06T12:26:30.574Z,4.17
2019-02-06T12:35:16.688Z,4.57
2019-02-06T12:38:37.730Z,4.13
2019-02-06T12:41:11.510Z,3.88
2019-02-06T12:44:02.110Z,4.04
2019-02-06T12:46:52.716Z,4.55
2019-02-06T12:49:43.394Z,4.06
2019-02-06T12:55:40.279Z,3.75
2019-02-06T12:58:13.011Z,4.21
2019-02-06T13:01:03.640Z,4.60
2019-02-06T13:06:36.773Z,5.33
2019-02-06T13:12:13.064Z,4.17
2019-02-06T13:17:48.887Z,4.69
2019-02-06T13:20:39.655Z,4.34
2019-02-06T13:23:49.658Z,4.41
2019-02-06T13:26:51.538Z,5.04
2019-02-06T13:29:23.967Z,4.49
2019-02-06T13:32:34.301Z,4.53
2019-02-06T13:35:24.933Z,4.45
2019-02-06T13:38:08.679Z,4.56
2019-02-06T13:40:59.365Z,3.92
2019-02-06T13:46:32.904Z,4.46
2019-02-06T13:49:23.513Z,4.91
2019-02-06T13:52:14.105Z,4.68
2019-02-06T13:54:59.218Z,4.77
2019-02-06T13:57:49.987Z,4.78
2019-02-06T14:03:46.280Z,5.06
2019-02-06T14:09:30.832Z,4.65
2019-02-06T14:12:02.984Z,4.24
2019-02-06T14:14:45.039Z,4.09
2019-02-06T14:17:18.358Z,4.14
2019-02-06T14:26:32.880Z,4.51
2019-02-06T14:30:06.183Z,4.14
2019-02-06T14:33:10.375Z,4.18
2019-02-06T14:36:20.916Z,4.15
2019-02-06T14:39:32.170Z,4.06
2019-02-06T14:42:29.587Z,3.94
2019-02-06T14:45:46.222Z,4.16
2019-02-06T14:52:08.332Z,4.67
2019-02-06T14:55:35.673Z,4.11
2019-02-06T14:59:05.305Z,3.99
2019-02-06T15:02:34.068Z,3.64
2019-02-06T15:06:02.837Z,3.73
2019-02-06T15:09:22.832Z,3.83
2019-02-06T15:12:32.424Z,3.88
2019-02-06T15:15:36.740Z,3.37
2019-02-06T15:19:05.591Z,3.25
2019-02-06T15:26:07.163Z,2.92
2019-02-06T15:29:35.934Z,2.92
2019-02-06T15:32:50.134Z,3.01
2019-02-06T15:36:00.535Z,3.19
2019-02-06T15:39:29.322Z,3.06
2019-02-06T15:42:55.115Z,3.21
2019-02-06T15:46:06.171Z,3.14
2019-02-06T15:49:15.634Z,2.99
2019-02-06T15:52:49.374Z,2.88
2019-02-06T15:55:59.559Z,2.66
2019-02-06T16:02:19.020Z,2.69
2019-02-06T16:05:55.542Z,2.81
2019-02-06T16:09:24.311Z,2.78
2019-02-06T16:12:52.772Z,2.70
2019-02-06T16:15:48.109Z,2.61
2019-02-06T16:19:19.606Z,2.40
2019-02-06T16:22:37.761Z,2.48
2019-02-06T16:26:02.948Z,2.39
2019-02-06T16:29:12.462Z,2.27
2019-02-06T16:32:22.192Z,2.27
2019-02-06T16:35:51.021Z,2.25
2019-02-06T16:39:19.798Z,2.09
2019-02-06T16:42:48.580Z,2.24
2019-02-06T16:46:17.394Z,2.27
2019-02-06T16:49:46.214Z,2.70
2019-02-06T16:53:34.262Z,2.90
2019-02-06T16:56:43.715Z,3.13
2019-02-06T17:00:33.656Z,3.46
2019-02-06T17:03:50.956Z,3.76
2019-02-06T17:07:19.755Z,3.17
2019-02-06T17:10:52.786Z,2.87
2019-02-06T17:17:12.594Z,2.26
2019-02-06T17:20:41.392Z,2.14
2019-02-06T17:24:10.176Z,1.91
2019-02-06T17:27:38.955Z,1.97
2019-02-06T17:31:03.346Z,2.45
2019-02-06T17:34:12.746Z,2.41
2019-02-06T17:37:23.000Z,2.82
2019-02-06T17:40:42.569Z,3.67
2019-02-06T17:44:12.762Z,3.53
2019-02-06T17:51:02.134Z,4.30
2019-02-06T17:54:13.720Z,3.67
2019-02-06T18:00:40.188Z,3.10
2019-02-06T18:03:14.004Z,4.10
2019-02-06T18:09:41.644Z,4.34
2019-02-06T18:12:26.597Z,4.98
2019-02-06T18:15:00.205Z,4.33
2019-02-06T18:18:03.584Z,3.55
2019-02-06T18:20:41.803Z,3.03
2019-02-06T18:23:51.566Z,2.08
2019-02-06T18:30:01.074Z,2.10
2019-02-06T18:34:11.717Z,1.87
2019-02-06T18:37:06.576Z,2.28
2019-02-06T18:39:40.165Z,2.50
2019-02-06T18:42:37.197Z,1.62
2019-02-06T18:45:18.907Z,2.34
2019-02-06T18:48:05.450Z,2.78
2019-02-06T18:51:11.311Z,2.88
2019-02-06T18:53:44.258Z,1.82
2019-02-06T18:56:34.917Z,2.72
2019-02-06T18:59:18.890Z,2.86
2019-02-06T19:02:09.594Z,2.75
2019-02-06T19:05:38.790Z,0.97
2019-02-06T19:11:15.893Z,0.98
2019-02-06T19:14:06.764Z,0.31
2019-02-06T19:16:49.652Z,0.34
2019-02-06T19:19:40.434Z,0.14
2019-02-06T19:22:32.878Z,-0.09
2019-02-06T19:25:17.604Z,-0.19
2019-02-06T19:33:38.733Z,-0.45
2019-02-06T19:36:29.312Z,-0.47
2019-02-06T19:42:02.656Z,-0.42
2019-02-06T19:44:53.424Z,-0.29
2019-02-06T19:47:44.057Z,-0.26
2019-02-06T19:50:46.216Z,-0.40
2019-02-06T19:53:37.130Z,-0.55
2019-02-06T19:56:20.134Z,-0.31
2019-02-06T19:59:10.898Z,-0.26
2019-02-06T20:02:02.649Z,-0.41
2019-02-06T20:04:53.392Z,-0.47
2019-02-06T20:07:24.873Z,-0.22
2019-02-06T20:10:25.647Z,0.79
2019-02-06T20:13:16.488Z,0.35
2019-02-06T20:19:10.764Z,1.87
2019-02-06T20:22:02.020Z,2.56
2019-02-06T20:27:53.360Z,3.01
2019-02-06T20:33:41.018Z,3.14
2019-02-06T20:36:43.874Z,2.35
2019-02-06T20:39:16.383Z,2.26
2019-02-06T20:45:18.903Z,3.05
2019-02-06T20:48:10.123Z,3.02
2019-02-06T20:51:15.445Z,1.87
2019-02-06T20:54:17.591Z,0.62
2019-02-06T20:57:11.797Z,-0.01
2019-02-06T20:59:34.767Z,0.40
2019-02-06T21:02:25.725Z,0.13
2019-02-06T21:05:35.605Z,-0.17
2019-02-06T21:08:18.624Z,0.01
2019-02-06T21:11:09.405Z,-0.12
2019-02-06T21:14:00.335Z,0.85
2019-02-06T21:16:51.154Z,1.70
2019-02-06T21:19:44.915Z,2.12
2019-02-06T21:22:18.927Z,2.47
2019-02-06T21:25:29.341Z,2.62
2019-02-06T21:28:11.763Z,2.19
2019-02-06T21:30:54.830Z,1.71
2019-02-06T21:33:46.356Z,1.02
2019-02-06T21:36:37.049Z,0.64
2019-02-06T21:39:20.275Z,0.93
2019-02-06T21:42:10.988Z,1.50
2019-02-06T21:45:01.903Z,2.29
2019-02-06T21:47:45.130Z,2.73
2019-02-06T21:50:37.045Z,1.40
2019-02-06T21:53:09.061Z,0.46
2019-02-06T21:56:00.095Z,-0.01
2019-02-06T21:58:50.810Z,-0.97
2019-02-06T22:01:41.669Z,-0.86
2019-02-06T22:07:35.687Z,-0.78
2019-02-06T22:10:23.928Z,-0.90
2019-02-06T22:12:55.488Z,0.04
2019-02-06T22:18:56.874Z,-0.03
2019-02-06T22:24:14.339Z,1.06
2019-02-06T22:27:05.447Z,1.59
2019-02-06T22:36:13.354Z,2.42
2019-02-06T22:39:05.861Z,2.23
2019-02-06T22:44:40.374Z,2.00
2019-02-06T22:47:31.139Z,2.08
2019-02-06T22:53:31.188Z,2.68
2019-02-06T22:59:28.334Z,3.13
2019-02-06T23:12:07.745Z,3.00
2019-02-06T23:14:41.126Z,2.27
2019-02-06T23:17:33.582Z,2.03
2019-02-06T23:20:24.359Z,2.48
2019-02-06T23:23:15.341Z,2.30
2019-02-06T23:26:12.050Z,2.46
2019-02-06T23:29:02.765Z,2.42
2019-02-06T23:31:53.515Z,2.66
2019-02-06T23:34:44.654Z,1.52
2019-02-06T23:37:41.147Z,1.35
2019-02-06T23:43:39.694Z,0.56
2019-02-06T23:46:30.349Z,-0.10
2019-02-06T23:49:51.839Z,0.35
2019-02-06T23:52:25.524Z,-0.42
2019-02-06T23:54:57.025Z,-1.11
2019-02-06T23:57:47.758Z,-1.51
